• Join FlightAware (Why Join?)
  • Login
  • US Flag 
08:25PM EST


 

Airport Tracker/Info


-or-


 

Live Flight TrackerFlight Track Log ✈ AVN50 ✈ 01.01.2014 ✈ NVVV / VLI - NZAA / AKL

Flight Track Log - Related Links

Times and Time Zones

All times are in EST time to prevent confusion due to time zone crossing. See the AVN50 flight status page for this flight to view local times or setup timezone preferences in your user account.

Time Position Orientation Groundspeed Altitude Reporting Facility
EST Latitude Longitude Course Direction KTS MPH feet Rate Location/Type
03:06PM -18.1414 168.4397 166° South  Level FlightAware Approximate
03:07PM -18.2519 168.4698 166° South  Level FlightAware Approximate
03:08PM -18.3624 168.4999 165° South  Level FlightAware Approximate
03:09PM -18.4729 168.5301 165° South  Level FlightAware Approximate
03:10PM -18.5834 168.5603 165° South  Level FlightAware Approximate
03:11PM -18.6939 168.5905 165° South  Level FlightAware Approximate
03:12PM -18.8044 168.6207 165° South  Level FlightAware Approximate
03:13PM -18.9149 168.6511 165° South  Level FlightAware Approximate
03:14PM -19.0254 168.6814 165° South  Level FlightAware Approximate
03:15PM -19.1358 168.7118 165° South  Level FlightAware Approximate
03:16PM -19.2463 168.7422 165° South  Level FlightAware Approximate
03:17PM -19.3568 168.7727 165° South  Level FlightAware Approximate
03:18PM -19.4672 168.8032 165° South  Level FlightAware Approximate
03:19PM -19.5777 168.8338 165° South  Level FlightAware Approximate
03:20PM -19.6881 168.8644 165° South  Level FlightAware Approximate
03:21PM -19.7986 168.8950 165° South  Level FlightAware Approximate
03:22PM -19.9090 168.9257 165° South  Level FlightAware Approximate
03:23PM -20.0194 168.9564 165° South  Level FlightAware Approximate
03:24PM -20.1299 168.9872 165° South  Level FlightAware Approximate
03:25PM -20.2403 169.0180 165° South  Level FlightAware Approximate
03:26PM -20.3507 169.0488 165° South  Level FlightAware Approximate
03:27PM -20.4611 169.0797 165° South  Level FlightAware Approximate
03:28PM -20.5715 169.1107 165° South  Level FlightAware Approximate
03:29PM -20.6819 169.1417 165° South  Level FlightAware Approximate
03:30PM -20.7923 169.1727 165° South  Level FlightAware Approximate
03:31PM -20.9027 169.2038 165° South  Level FlightAware Approximate
03:32PM -21.0131 169.2349 165° South  Level FlightAware Approximate
03:33PM -21.1234 169.2661 165° South  Level FlightAware Approximate
03:34PM -21.2338 169.2973 165° South  Level FlightAware Approximate
03:35PM -21.3442 169.3285 165° South  Level FlightAware Approximate
03:36PM -21.4545 169.3598 165° South  Level FlightAware Approximate
03:37PM -21.5649 169.3912 165° South  Level FlightAware Approximate
03:38PM -21.6752 169.4226 165° South  Level FlightAware Approximate
03:39PM -21.7856 169.4541 165° South  Level FlightAware Approximate
03:40PM -21.8959 169.4856 165° South  Level FlightAware Approximate
03:41PM -22.0063 169.5171 165° South  Level FlightAware Approximate
03:42PM -22.1166 169.5487 165° South  Level FlightAware Approximate
03:43PM -22.2269 169.5804 165° South  Level FlightAware Approximate
03:44PM -22.3372 169.6121 165° South  Level FlightAware Approximate
03:45PM -22.4475 169.6438 165° South  Level FlightAware Approximate
03:46PM -22.5578 169.6756 165° South  Level FlightAware Approximate
03:47PM -22.6681 169.7075 165° South  Level FlightAware Approximate
03:48PM -22.7784 169.7394 165° South  Level FlightAware Approximate
03:49PM -22.8887 169.7713 165° South  Level FlightAware Approximate
03:50PM -22.9989 169.8033 165° South  Level FlightAware Approximate
03:51PM -23.1092 169.8354 165° South  Level FlightAware Approximate
03:52PM -23.2195 169.8675 165° South  Level FlightAware Approximate
03:53PM -23.3297 169.8997 165° South  Level FlightAware Approximate
03:54PM -23.4400 169.9319 165° South  Level FlightAware Approximate
03:55PM -23.5502 169.9642 165° South  Level FlightAware Approximate
03:56PM -23.6604 169.9965 165° South  Level FlightAware Approximate
03:57PM -23.7707 170.0289 165° South  Level FlightAware Approximate
03:58PM -23.8809 170.0613 165° South  Level FlightAware Approximate
03:59PM -23.9905 170.0960 164° South  Level Estimated
04:00PM -24.1006 170.1292 165° South  Level FlightAware Approximate
04:01PM -24.2106 170.1625 165° South  Level FlightAware Approximate
04:02PM -24.3206 170.1958 165° South  Level FlightAware Approximate
04:03PM -24.4307 170.2292 165° South  Level FlightAware Approximate
04:04PM -24.5407 170.2626 165° South  Level FlightAware Approximate
04:05PM -24.6507 170.2962 165° South  Level FlightAware Approximate
04:06PM -24.7607 170.3297 165° South  Level FlightAware Approximate
04:06PM -25.7333 170.6167 164° South 496 571  Level New Zealand
04:07PM -24.8706 170.3634 164° South  Level FlightAware Approximate
04:08PM -24.9806 170.3970 164° South  Level FlightAware Approximate
04:08PM -26.0000 170.7000 164° South 496 571  Level New Zealand
04:10PM -26.2500 170.7833 163° South 477 549  Level New Zealand
04:12PM -26.5167 170.8667 164° South 477 549  Level New Zealand
04:14PM -26.7667 170.9500 163° South 477 549  Level New Zealand
04:16PM -27.0167 171.0167 167° South 477 549  Level New Zealand
04:18PM -27.2833 171.1000 164° South 477 549  Level New Zealand
04:20PM -27.5333 171.1833 164° South 477 549  Level New Zealand
04:22PM -27.7833 171.2667 164° South 477 549  Level New Zealand
04:24PM -28.0500 171.3500 165° South 477 549  Level New Zealand
04:26PM -28.3000 171.4333 164° South 477 549  Level New Zealand
04:28PM -28.5500 171.5167 164° South 477 549  Level New Zealand
04:30PM -28.8167 171.6167 162° South 477 549  Level New Zealand
04:32PM -29.0667 171.7000 164° South 477 549  Level New Zealand
04:34PM -29.3167 171.7833 164° South 477 549  Level New Zealand
04:36PM -29.5833 171.8667 165° South 499 574  Level New Zealand
04:38PM -29.9833 172.0000 164° South 506 582  Level New Zealand
04:40PM -30.2500 172.1000 162° South 506 582  Level New Zealand
04:42PM -30.5167 172.1833 165° South 506 582  Level New Zealand
04:44PM -30.8000 172.2833 163° South 506 582  Level New Zealand
04:46PM -31.0667 172.3833 162° South 506 582  Level New Zealand
04:48PM -31.3333 172.4667 165° South 506 582  Level New Zealand
04:50PM -31.6000 172.5667 162° South 506 582  Level New Zealand
04:52PM -31.8667 172.6667 162° South 506 582  Level New Zealand
04:54PM -32.1500 172.7500 166° South 506 582  Level New Zealand
04:56PM -32.4167 172.8500 162° South 506 582  Level New Zealand
04:58PM -32.6833 172.9500 162° South 506 582  Level New Zealand
05:00PM -32.9500 173.0500 163° South 506 582  Level New Zealand
05:00PM -32.9500 173.0500 163° South 435 501  Level New Zealand
05:01PM -33.1000 173.0833 169° South 503 579  Level New Zealand
05:02PM -33.2333 173.1500 157° South 502 578  Level New Zealand
05:03PM -33.3667 173.2000 163° South 502 578  Level New Zealand
05:04PM -33.5000 173.2500 163° South 500 575  Level New Zealand
05:05PM -33.6500 173.3000 164° South 500 575  Level New Zealand
05:06PM -33.7833 173.3500 163° South 504 580  Level New Zealand
05:07PM -33.9167 173.4000 163° South 492 566  Level New Zealand
05:08PM -34.0500 173.4167 174° South 486 559  Level New Zealand
05:09PM -34.2000 173.4333 175° South 488 562  Level New Zealand
05:10PM -34.3333 173.4333 180° South 492 566  Level New Zealand
05:11PM -34.4667 173.4500 174° South 492 566  Level New Zealand
05:12PM -34.6167 173.4667 175° South 494 568  Level New Zealand
05:14PM -34.7500 173.4833 174° South 498 573  Level New Zealand
05:15PM -34.9000 173.5000 175° South 500 575  Level New Zealand
05:16PM -35.0333 173.5167 174° South 502 578  Level New Zealand
05:17PM -35.1833 173.5500 170° South 503 579  Level New Zealand
05:18PM -35.3167 173.5667 174° South 499 574  Level New Zealand
05:19PM -35.4667 173.5833 175° South 494 568  Level New Zealand
05:20PM -35.6000 173.6000 174° South 488 562  Level New Zealand
05:21PM -35.7333 173.6167 174° South 489 563  Level New Zealand
05:22PM -35.8833 173.6333 175° South 495 570  Level New Zealand
05:23PM -36.0167 173.6500 174° South 480 552  Level New Zealand
05:24PM -36.1500 173.6667 174° South 459 528  Level New Zealand
05:25PM -36.2667 173.6833 173° South 441 507  Level New Zealand
05:26PM -36.3833 173.7000 173° South 445 512  Level New Zealand
05:27PM -36.4833 173.8000 141° Southeast 426 490  Level New Zealand
05:28PM -36.5667 173.9000 136° Southeast 406 467  Level New Zealand
05:29PM -36.6500 174.0000 136° Southeast 381 438  Level New Zealand
05:30PM -36.7167 174.0833 135° Southeast 366 421  Level New Zealand
05:31PM -36.7833 174.1667 135° Southeast 335 386  Level New Zealand
05:32PM -36.8500 174.2500 135° Southeast 325 374  Level New Zealand
05:33PM -36.9167 174.3333 135° Southeast 303 349  Level New Zealand
05:34PM -36.9667 174.4000 133° Southeast 292 336  Level New Zealand
05:35PM -37.0333 174.4667 141° Southeast 270 311  Level New Zealand
05:36PM -37.0833 174.5333 133° Southeast 225 259  Level New Zealand
05:37PM -37.0667 174.6000 73° East 206 237  Level New Zealand
05:38PM -37.0500 174.6667 73° East 196 226  Level New Zealand
05:39PM -37.0333 174.7333 73° East 157 181  Level New Zealand
05:40PM -37.0167 174.7667 58° Northeast 141 162  Level New Zealand
05:42PM -37.0081 174.7917 160° South  Level Estimated